Aérodrome :
LOGIN :

S'inscrire | Disclaimer

   EN    FR    IT 

 










Légende :    VFR   VFR Marginal   IFR   IFR Intensif   IFR Très Intensif
Visi : 
Plafond : 
>= 8 km
>= 3000ft
5 à 8 km
1000 à 3000 ft
1500m à 5 km
500 à 1000 ft
800 à 1500m
200 à 500 ft
< 800m
< 200 ft
Symboles :   Orages  Brouillard  Fortes neiges  Fortes précipitations  Vent > 20 kt
SIGMETs :   Divers  Orages  Givrage  Turbulence  Onde Orograph.  Cendres Volcan.







- Altitude de l'aérodrome : 236 ft
- Code IATA : MMX


ESMS - Malmö Sturup

DERNIER METAR :
  • 200150Z 21006KT 9999 FEW012 12/12 Q1014

METARs EXPIRÉS :
  • 200120Z AUTO 21006KT 9999 NCD 12/11 Q1014
  • 200050Z 22007KT 9999 FEW032 13/12 Q1014
  • 200020Z AUTO 23007KT 9999 NCD 14/12 Q1014
  • 192350Z 23007KT CAVOK 14/12 Q1014
  • 192320Z 23010KT 9999 FEW044 14/12 Q1014

TAF TAF ESMS
Valide du 20 à 00h jusqu'au 21 à 00h UTC


192328Z 2000/2024 24012KT 9999 SCT030
TEMPO 2010/2024 26018G28KT 4000 SHRA BKN030CB
PROB40 2010/2018 TSRA
Pas de NOTAMs connus pour ce terrain.



MET'MAP, la Météo Aéronautique d'un coup d'oeil ! - Copyright ORBIFLY Décembre 2007 - Disclaimer

ORBIFLY MET'MAP TEAM :

Programmation & Développement : Alexandra Zaïnal
Conception & Développement : Baudouin d'Aumeries
Co-Programmation & Développement : Marc-Olivier Méhu
Soutien technique & logistique : Manuel Goepfert

Contact : metmap@orbifly.com




SOURCES & CREDITS :

   NOAA